Time;durP1;ratioP1;P1;durP2;ratioP2;P2;SDS_P1;SDS_P2;PMS_P1;PMS_P2;Temp;Humidity;BMP_temperature;BMP_pressure;BME280_temperature;BME280_humidity;BME280_pressure;Samples;Min_cycle;Max_cycle;Signal;HPM_P1;HPM_P2
2022/12/24 00:00:30;;;;;;;3.63;2.03;;;;;;;8.67;100.00;99221.34;5059851;28;20036;-77
2022/12/24 00:02:56;;;;;;;4.30;2.65;;;;;;;8.65;100.00;99216.13;5066407;28;20499;-78
2022/12/24 00:05:21;;;;;;;4.43;2.33;;;;;;;8.68;100.00;99208.16;5064691;28;20518;-79
2022/12/24 00:07:46;;;;;;;4.88;2.83;;;;;;;8.72;100.00;99212.47;5065106;28;20048;-78
2022/12/24 00:10:12;;;;;;;4.13;2.47;;;;;;;8.81;100.00;99213.19;5065918;28;20040;-79
2022/12/24 00:12:37;;;;;;;4.55;2.20;;;;;;;8.88;100.00;99225.31;5063622;28;20044;-79
2022/12/24 00:15:04;;;;;;;4.68;2.53;;;;;;;8.86;100.00;99221.84;5066863;28;20041;-79
2022/12/24 00:17:29;;;;;;;4.05;1.80;;;;;;;8.88;100.00;99225.31;5065753;28;20569;-78
2022/12/24 00:19:55;;;;;;;4.03;1.77;;;;;;;8.91;100.00;99225.25;5064393;28;20147;-78
2022/12/24 00:22:20;;;;;;;2.70;1.48;;;;;;;9.00;100.00;99232.97;5065131;28;20039;-79
2022/12/24 00:24:45;;;;;;;3.42;1.70;;;;;;;9.10;100.00;99236.28;5065389;28;20040;-79
2022/12/24 00:27:10;;;;;;;3.08;1.08;;;;;;;9.25;100.00;99237.69;5063572;28;20037;-78
2022/12/24 00:29:36;;;;;;;2.92;1.20;;;;;;;9.38;100.00;99249.72;5066492;28;20040;-78
2022/12/24 00:32:01;;;;;;;3.22;1.10;;;;;;;9.50;100.00;99245.94;5059940;28;20037;-79
2022/12/24 00:34:26;;;;;;;3.13;1.20;;;;;;;9.61;100.00;99244.78;5063666;28;20037;-79
2022/12/24 00:36:52;;;;;;;2.88;1.25;;;;;;;9.71;100.00;99250.72;5062425;28;20455;-79
2022/12/24 00:39:17;;;;;;;3.85;1.10;;;;;;;9.82;100.00;99261.00;5064476;28;20552;-78
2022/12/24 00:41:43;;;;;;;3.22;1.02;;;;;;;9.93;100.00;99250.19;5063548;28;20035;-78
2022/12/24 00:44:09;;;;;;;2.85;0.75;;;;;;;9.96;100.00;99256.28;5065594;28;20040;-79
2022/12/24 00:46:35;;;;;;;5.45;1.05;;;;;;;9.99;100.00;99264.13;5062098;28;20029;-78
2022/12/24 00:49:00;;;;;;;6.03;1.45;;;;;;;10.00;100.00;99262.34;5063013;28;20037;-79
2022/12/24 00:51:26;;;;;;;3.30;1.30;;;;;;;10.11;100.00;99260.31;5064611;28;20102;-78
2022/12/24 00:53:52;;;;;;;2.45;1.02;;;;;;;10.15;100.00;99264.59;5064300;28;20110;-78
2022/12/24 00:56:18;;;;;;;4.00;1.20;;;;;;;10.17;100.00;99260.16;5063208;28;20075;-78
2022/12/24 00:58:43;;;;;;;3.80;0.80;;;;;;;10.21;100.00;99279.41;5064018;28;20118;-78
2022/12/24 01:01:08;;;;;;;2.65;0.90;;;;;;;10.23;100.00;99275.81;5062392;28;20063;-78
2022/12/24 01:03:34;;;;;;;2.22;0.73;;;;;;;10.28;100.00;99283.66;5062360;28;20033;-78
2022/12/24 01:06:11;;;;;;;3.35;1.00;;;;;;;10.24;100.00;99281.97;5063704;28;20170;-78
2022/12/24 01:08:36;;;;;;;4.68;1.05;;;;;;;10.26;100.00;99285.44;5065189;28;20039;-78
2022/12/24 01:11:04;;;;;;;1.80;0.90;;;;;;;10.28;100.00;99291.56;5062136;28;20396;-78
2022/12/24 01:13:29;;;;;;;2.67;0.65;;;;;;;10.30;100.00;99288.00;5064897;28;20042;-78
2022/12/24 01:15:54;;;;;;;2.45;0.60;;;;;;;10.28;100.00;99294.22;5062966;28;20036;-79
2022/12/24 01:18:20;;;;;;;3.75;0.98;;;;;;;10.28;100.00;99294.22;5064398;28;20443;-79
2022/12/24 01:20:55;;;;;;;5.15;0.80;;;;;;;10.34;100.00;99301.09;5062887;28;20067;-78
2022/12/24 01:23:21;;;;;;;2.70;0.40;;;;;;;10.31;100.00;99299.41;5059049;28;20136;-78
2022/12/24 01:25:46;;;;;;;4.43;0.70;;;;;;;10.34;100.00;99301.97;5065401;28;20044;-78
2022/12/24 01:28:11;;;;;;;2.75;0.68;;;;;;;10.34;100.00;99312.50;5061480;28;20028;-78
2022/12/24 01:30:37;;;;;;;3.25;0.80;;;;;;;10.38;100.00;99316.81;5063005;28;20399;-78
2022/12/24 01:33:02;;;;;;;2.78;0.70;;;;;;;10.42;100.00;99317.59;5024212;28;20442;-78
2022/12/24 01:35:27;;;;;;;3.17;0.70;;;;;;;10.43;100.00;99314.94;5060211;28;20654;-78
2022/12/24 01:37:53;;;;;;;3.33;0.80;;;;;;;10.42;100.00;99323.72;5064952;28;20403;-79
2022/12/24 01:45:54;;;;;;;2.05;0.60;;;;;;;10.40;100.00;99335.22;5061615;28;20048;-79
2022/12/24 01:48:37;;;;;;;2.67;0.75;;;;;;;10.34;100.00;99349.44;5059249;28;20499;-79
2022/12/24 01:51:12;;;;;;;3.85;0.90;;;;;;;10.41;100.00;99351.03;5057600;28;20680;-79
2022/12/24 01:53:41;;;;;;;3.13;0.68;;;;;;;10.46;100.00;99348.28;5063082;28;20452;-78
2022/12/24 01:56:09;;;;;;;4.22;0.80;;;;;;;10.46;100.00;99357.06;5063931;28;20039;-79
2022/12/24 01:58:36;;;;;;;7.70;1.13;;;;;;;10.44;100.00;99344.81;5064011;28;20033;-79
2022/12/24 02:01:05;;;;;;;4.53;1.10;;;;;;;10.36;100.00;99337.09;5061376;28;20029;-79
2022/12/24 02:03:30;;;;;;;2.10;1.00;;;;;;;10.29;100.00;99352.16;5061456;28;20047;-78
2022/12/24 02:05:58;;;;;;;5.38;1.00;;;;;;;10.20;100.00;99357.66;5063653;28;20440;-78
2022/12/24 02:08:38;;;;;;;6.43;1.05;;;;;;;10.15;100.00;99363.94;5060981;28;20033;-78
2022/12/24 02:11:12;;;;;;;4.15;1.13;;;;;;;10.13;100.00;99358.69;5062372;28;20483;-79
2022/12/24 02:13:37;;;;;;;3.85;0.70;;;;;;;10.09;100.00;99363.16;5056806;28;20063;-79
2022/12/24 02:16:24;;;;;;;2.80;1.20;;;;;;;10.12;100.00;99377.19;5063627;28;20055;-79
2022/12/24 02:19:04;;;;;;;8.38;1.40;;;;;;;10.17;100.00;99380.59;5072393;28;20048;-79
2022/12/24 02:21:47;;;;;;;8.88;1.13;;;;;;;10.26;100.00;99385.63;5063844;28;20101;-78
2022/12/24 02:24:12;;;;;;;;;;;;;;;10.19;100.00;99378.75;5060243;28;20047;-78
2022/12/24 02:26:59;;;;;;;4.50;0.88;;;;;;;10.22;100.00;99389.25;5061618;28;19991;-79
2022/12/24 02:29:45;;;;;;;5.82;1.25;;;;;;;10.26;100.00;99383.00;5062221;28;20041;-79
2022/12/24 02:32:17;;;;;;;10.27;1.77;;;;;;;10.20;100.00;99393.69;5060291;28;20376;-78
2022/12/24 02:35:14;;;;;;;4.03;1.20;;;;;;;10.23;100.00;99399.75;5060842;28;20045;-78
2022/12/24 02:37:46;;;;;;;8.15;1.00;;;;;;;10.27;100.00;99405.81;5060828;28;20033;-78
2022/12/24 02:40:21;;;;;;;10.25;1.45;;;;;;;10.33;100.00;99411.00;5062251;28;20047;-78
2022/12/24 02:42:54;;;;;;;10.32;1.73;;;;;;;10.22;100.00;99410.34;5060534;28;20573;-79
2022/12/24 02:45:24;;;;;;;3.83;1.10;;;;;;;10.15;100.00;99414.03;5062205;28;20511;-79
2022/12/24 02:47:51;;;;;;;4.57;1.00;;;;;;;10.14;100.00;99423.72;5063197;28;20647;-78
2022/12/24 02:50:17;;;;;;;5.20;0.93;;;;;;;10.12;100.00;99420.25;5060173;28;20036;-79
2022/12/24 02:52:45;;;;;;;6.18;1.55;;;;;;;10.13;100.00;99418.47;5063259;28;20029;-79
2022/12/24 02:55:19;;;;;;;4.50;1.30;;;;;;;10.09;100.00;99420.31;5061784;28;20510;-79
2022/12/24 02:58:27;;;;;;;6.75;0.85;;;;;;;10.17;100.00;99425.41;5061445;28;20415;-78
2022/12/24 03:01:14;;;;;;;5.90;1.40;;;;;;;10.15;100.00;99427.22;5060144;28;20032;-78
2022/12/24 03:04:38;;;;;;;4.85;1.13;;;;;;;10.14;100.00;99433.38;5057892;28;20043;-78
2022/12/24 03:07:30;;;;;;;6.20;1.55;;;;;;;10.21;100.00;99450.78;5075439;28;20048;-79
2022/12/24 03:10:17;;;;;;;4.75;1.17;;;;;;;10.26;100.00;99451.56;5061581;28;20032;-79
2022/12/24 03:13:12;;;;;;;9.43;1.83;;;;;;;10.23;100.00;99454.28;5044114;28;20051;-79
2022/12/24 03:15:38;;;;;;;7.88;1.13;;;;;;;10.25;100.00;99455.13;5055890;28;20056;-78
2022/12/24 03:18:07;;;;;;;4.38;0.73;;;;;;;10.17;100.00;99459.69;5043121;28;20047;-78
2022/12/24 03:20:44;;;;;;;9.80;1.20;;;;;;;10.11;100.00;99455.38;5061089;28;20090;-78
2022/12/24 03:23:10;;;;;;;10.48;1.50;;;;;;;10.05;100.00;99455.53;5062017;28;20071;-79
2022/12/24 03:25:39;;;;;;;7.03;1.73;;;;;;;10.01;100.00;99453.88;5055035;28;20068;-79
2022/12/24 03:28:06;;;;;;;5.93;1.25;;;;;;;9.95;100.00;99460.13;5059787;28;20068;-79
2022/12/24 03:30:32;;;;;;;13.85;2.42;;;;;;;9.94;100.00;99457.53;5044177;28;20052;-79
2022/12/24 03:32:57;;;;;;;13.18;2.00;;;;;;;9.92;100.00;99468.09;5060953;28;20032;-79
2022/12/24 03:35:23;;;;;;;5.15;1.40;;;;;;;9.87;100.00;99473.44;5063630;22;20045;-77
2022/12/24 03:37:48;;;;;;;6.78;1.33;;;;;;;9.86;100.00;99465.59;5042538;28;20040;-77
2022/12/24 03:40:13;;;;;;;8.32;1.35;;;;;;;9.87;100.00;99469.94;5039908;28;20124;-77
2022/12/24 03:42:39;;;;;;;6.32;1.40;;;;;;;9.82;100.00;99479.72;5044689;28;20108;-77
2022/12/24 03:45:05;;;;;;;10.63;1.63;;;;;;;9.78;100.00;99478.91;5040930;28;20124;-77
2022/12/24 03:47:30;;;;;;;13.10;1.30;;;;;;;9.80;100.00;99485.03;5040098;28;20124;-77
2022/12/24 03:49:55;;;;;;;7.20;1.40;;;;;;;9.85;100.00;99479.66;5042270;28;20384;-77
2022/12/24 03:52:21;;;;;;;7.00;1.23;;;;;;;9.82;100.00;99492.91;5039158;28;20048;-77
2022/12/24 03:54:46;;;;;;;10.75;1.75;;;;;;;9.85;100.00;99495.47;5042404;28;20043;-77
2022/12/24 03:57:11;;;;;;;4.13;1.08;;;;;;;9.90;100.00;99490.97;5039826;28;20041;-76
2022/12/24 03:59:37;;;;;;;4.90;1.08;;;;;;;9.91;100.00;99499.78;5040928;28;20043;-76
2022/12/24 04:02:02;;;;;;;6.97;1.98;;;;;;;9.90;100.00;99500.66;5041629;28;20388;-77
2022/12/24 04:04:27;;;;;;;9.50;1.33;;;;;;;9.94;100.00;99499.72;5036316;28;20477;-77
2022/12/24 04:06:53;;;;;;;8.52;1.30;;;;;;;9.93;100.00;99506.75;5038873;28;20624;-77
2022/12/24 04:09:18;;;;;;;11.25;2.13;;;;;;;9.95;100.00;99512.84;5039137;28;20053;-77
2022/12/24 04:11:43;;;;;;;6.03;0.77;;;;;;;9.98;100.00;99506.63;5042058;28;20033;-76
2022/12/24 04:14:09;;;;;;;7.53;1.52;;;;;;;10.04;100.00;99517.94;5047485;28;20045;-77
2022/12/24 04:16:34;;;;;;;5.32;1.10;;;;;;;10.08;100.00;99524.88;5039261;28;20120;-76
2022/12/24 04:18:59;;;;;;;10.05;1.00;;;;;;;10.10;100.00;99517.81;5041187;28;20544;-77
2022/12/24 04:21:24;;;;;;;9.52;1.40;;;;;;;10.08;100.00;99527.50;5039797;28;20033;-77
2022/12/24 04:23:50;;;;;;;4.40;1.02;;;;;;;10.07;100.00;99543.38;5042245;28;20040;-77
2022/12/24 04:26:15;;;;;;;8.30;0.90;;;;;;;9.97;100.00;99550.59;5038691;28;20045;-76
2022/12/24 04:28:41;;;;;;;4.30;0.93;;;;;;;9.82;100.00;99554.41;5040286;28;20052;-76
2022/12/24 04:31:12;;;;;;;3.40;1.05;;;;;;;9.80;100.00;99547.41;5041157;28;20425;-75
2022/12/24 04:33:38;;;;;;;6.95;2.20;;;;;;;9.69;100.00;99576.56;5040576;28;20048;-74
2022/12/24 04:36:05;;;;;;;7.63;1.20;;;;;;;9.56;100.00;99562.78;5042038;28;20037;-74
2022/12/24 04:38:30;;;;;;;4.82;1.00;;;;;;;9.52;100.00;99576.88;5038976;28;20049;-75
2022/12/24 04:41:05;;;;;;;7.22;1.10;;;;;;;9.46;100.00;99584.00;5045343;28;20090;-75
2022/12/24 04:43:31;;;;;;;5.22;1.23;;;;;;;9.39;100.00;99580.63;5044990;28;20069;-75
2022/12/24 04:46:02;;;;;;;8.40;1.85;;;;;;;9.35;100.00;99578.91;5038920;28;20033;-75
2022/12/24 04:48:27;;;;;;;9.27;2.22;;;;;;;9.34;100.00;99578.03;5040289;28;20048;-75
2022/12/24 04:50:53;;;;;;;12.88;2.05;;;;;;;9.34;100.00;99577.19;5044436;28;20033;-75
2022/12/24 04:53:18;;;;;;;7.82;1.67;;;;;;;9.34;100.00;99578.03;5044397;28;20037;-75
2022/12/24 04:55:44;;;;;;;4.35;1.23;;;;;;;9.34;100.00;99578.03;5042718;28;20048;-75
2022/12/24 04:58:10;;;;;;;4.05;1.58;;;;;;;9.37;100.00;99593.78;5045464;28;20033;-75
2022/12/24 05:00:35;;;;;;;4.18;1.45;;;;;;;9.34;100.00;99592.97;5041106;28;20079;-75
2022/12/24 05:03:01;;;;;;;7.22;1.85;;;;;;;9.32;100.00;99598.25;5045068;28;20407;-75
2022/12/24 05:05:26;;;;;;;8.73;1.77;;;;;;;9.30;100.00;99604.44;5041094;28;20504;-75
2022/12/24 05:07:52;;;;;;;7.22;1.77;;;;;;;9.31;100.00;99616.75;5044294;28;20037;-75
2022/12/24 05:10:18;;;;;;;6.25;1.88;;;;;;;9.30;100.00;99610.59;5043015;28;20530;-75
2022/12/24 05:12:43;;;;;;;6.93;1.80;;;;;;;9.35;100.00;99615.78;5040818;28;20029;-75
2022/12/24 05:15:08;;;;;;;5.85;1.63;;;;;;;9.32;100.00;99615.84;5041809;28;20059;-75
2022/12/24 05:17:34;;;;;;;10.00;1.85;;;;;;;9.37;100.00;99614.00;5044954;28;20076;-75
2022/12/24 05:19:59;;;;;;;7.05;1.77;;;;;;;9.38;100.00;99623.66;5044491;28;20388;-75
2022/12/24 05:27:53;;;;;;;5.82;1.60;;;;;;;9.38;100.00;99635.06;5042210;28;20549;-75
2022/12/24 05:30:19;;;;;;;5.20;1.63;;;;;;;9.37;100.00;99638.56;5044433;28;20403;-75
2022/12/24 05:32:44;;;;;;;9.55;1.50;;;;;;;9.33;100.00;99643.94;5042960;28;20033;-75
2022/12/24 05:35:09;;;;;;;5.30;2.33;;;;;;;9.31;100.00;99640.44;5042770;28;20518;-75
2022/12/24 05:37:35;;;;;;;4.93;1.02;;;;;;;9.36;100.00;99638.59;5042739;28;20069;-75
2022/12/24 05:40:00;;;;;;;6.70;1.50;;;;;;;9.39;100.00;99662.25;5044533;28;20533;-75
2022/12/24 05:42:25;;;;;;;8.35;1.65;;;;;;;9.44;100.00;99636.72;5040337;28;20039;-75
2022/12/24 05:44:51;;;;;;;5.55;1.23;;;;;;;9.48;100.00;99648.06;5044460;28;20047;-75
2022/12/24 05:47:16;;;;;;;7.32;1.40;;;;;;;9.58;100.00;99665.47;5043865;28;20037;-75
2022/12/24 05:49:41;;;;;;;3.63;0.95;;;;;;;9.61;100.00;99661.00;5041828;28;20041;-75
2022/12/24 05:52:07;;;;;;;8.30;0.95;;;;;;;9.62;100.00;99667.16;5040467;28;20037;-75
2022/12/24 05:54:32;;;;;;;6.80;1.10;;;;;;;9.56;100.00;99668.13;5043637;28;20040;-75
2022/12/24 05:56:57;;;;;;;6.13;1.83;;;;;;;9.59;100.00;99667.22;5041235;28;20037;-75
2022/12/24 05:59:23;;;;;;;11.60;1.77;;;;;;;9.57;100.00;99667.22;5044413;28;20056;-75
2022/12/24 06:01:48;;;;;;;7.57;1.58;;;;;;;9.54;100.00;99672.56;5041606;28;20388;-75
2022/12/24 06:04:13;;;;;;;6.63;1.17;;;;;;;9.49;100.00;99670.91;5043389;28;20029;-75
2022/12/24 06:06:38;;;;;;;6.68;1.17;;;;;;;9.49;100.00;99681.44;5042379;28;20412;-75
2022/12/24 06:09:04;;;;;;;5.38;1.52;;;;;;;9.49;100.00;99687.56;5042125;28;20044;-75
2022/12/24 06:11:30;;;;;;;8.82;1.55;;;;;;;9.51;100.00;99688.41;5041479;28;20067;-75
2022/12/24 06:13:55;;;;;;;8.00;1.27;;;;;;;9.48;100.00;99696.34;5040765;28;20044;-75
2022/12/24 06:16:22;;;;;;;6.18;1.63;;;;;;;9.44;100.00;99718.38;5043752;28;20037;-75
2022/12/24 06:18:48;;;;;;;6.90;1.58;;;;;;;9.47;100.00;99718.31;5041797;28;20393;-75
2022/12/24 06:21:14;;;;;;;5.60;1.25;;;;;;;9.42;100.00;99734.19;5044272;28;20035;-75
2022/12/24 06:23:41;;;;;;;5.25;1.42;;;;;;;9.33;100.00;99713.25;5041743;28;20591;-74
2022/12/24 06:26:08;;;;;;;6.68;1.48;;;;;;;9.27;100.00;99717.72;5043560;28;20052;-75
2022/12/24 06:28:36;;;;;;;5.53;1.30;;;;;;;9.21;100.00;99713.41;5039227;28;20657;-74
2022/12/24 06:31:03;;;;;;;5.53;1.65;;;;;;;9.17;100.00;99725.75;5043233;28;20029;-74
2022/12/24 06:33:29;;;;;;;4.72;1.08;;;;;;;9.17;100.00;99731.03;5040996;28;20511;-74
2022/12/24 06:35:55;;;;;;;6.43;1.27;;;;;;;9.16;100.00;99731.91;5041082;28;20041;-74
2022/12/24 06:38:20;;;;;;;6.38;1.58;;;;;;;9.17;100.00;99746.81;5042531;28;20541;-74
2022/12/24 06:40:46;;;;;;;8.95;1.27;;;;;;;9.19;100.00;99747.66;5039996;28;20496;-74
2022/12/24 06:43:12;;;;;;;5.90;1.35;;;;;;;9.19;100.00;99745.00;5043236;28;20380;-74
2022/12/24 06:45:37;;;;;;;5.75;1.70;;;;;;;9.22;100.00;99746.75;5042248;28;20048;-74
2022/12/24 06:48:03;;;;;;;5.40;1.10;;;;;;;9.29;100.00;99763.34;5041987;28;20034;-75
2022/12/24 06:50:29;;;;;;;9.15;1.35;;;;;;;9.35;100.00;99774.69;5041080;28;20103;-75
2022/12/24 06:52:54;;;;;;;13.18;2.08;;;;;;;9.39;100.00;99768.47;5041698;28;20037;-74
2022/12/24 06:55:19;;;;;;;7.70;1.75;;;;;;;9.45;100.00;99778.03;5043467;28;20128;-75
2022/12/24 06:57:45;;;;;;;6.15;1.33;;;;;;;9.48;100.00;99785.88;5040276;28;20508;-75
2022/12/24 07:00:11;;;;;;;6.22;1.60;;;;;;;9.52;100.00;99787.59;5042470;28;20033;-75
2022/12/24 07:02:41;;;;;;;7.55;1.20;;;;;;;9.53;100.00;99788.47;5041632;28;20034;-75
2022/12/24 07:05:09;;;;;;;11.35;1.30;;;;;;;9.53;100.00;99799.88;5040370;28;20049;-75
2022/12/24 07:07:36;;;;;;;9.02;2.15;;;;;;;9.55;100.00;99798.09;5042946;28;20047;-75
2022/12/24 07:10:03;;;;;;;8.07;1.38;;;;;;;9.59;100.00;99798.94;5040280;28;20073;-75
2022/12/24 07:12:28;;;;;;;3.70;0.90;;;;;;;9.59;100.00;99794.53;5039816;28;20033;-75
2022/12/24 07:14:54;;;;;;;9.35;1.00;;;;;;;9.60;100.00;99801.53;5040656;28;20526;-75
2022/12/24 07:17:19;;;;;;;4.80;1.02;;;;;;;9.65;100.00;99806.75;5033186;28;20041;-75
2022/12/24 07:19:44;;;;;;;4.88;0.60;;;;;;;9.70;100.00;99822.50;5040016;28;20079;-75
2022/12/24 07:22:09;;;;;;;6.25;1.00;;;;;;;9.68;100.00;99816.38;5042900;28;20103;-75
2022/12/24 07:24:35;;;;;;;6.28;0.80;;;;;;;9.78;100.00;99815.34;5036147;28;20037;-75
2022/12/24 07:27:00;;;;;;;4.47;1.08;;;;;;;9.81;100.00;99857.47;5041678;28;20040;-75
2022/12/24 07:29:25;;;;;;;2.83;0.73;;;;;;;9.84;100.00;99825.81;5041187;28;20086;-75
2022/12/24 07:31:51;;;;;;;10.05;1.40;;;;;;;9.82;100.00;99824.94;5041727;28;20033;-75
2022/12/24 07:34:16;;;;;;;6.85;1.00;;;;;;;9.83;100.00;99840.75;5039881;28;20025;-75
2022/12/24 07:36:41;;;;;;;4.10;0.90;;;;;;;9.78;100.00;99837.31;5042577;28;20040;-75
2022/12/24 07:39:07;;;;;;;7.30;1.58;;;;;;;9.81;100.00;99836.38;5035791;28;20095;-75
2022/12/24 07:41:32;;;;;;;7.32;1.15;;;;;;;9.80;100.00;99846.06;5042217;28;20116;-75
2022/12/24 07:43:58;;;;;;;4.75;0.82;;;;;;;9.80;100.00;99866.28;5048188;28;20051;-75
2022/12/24 07:46:24;;;;;;;4.43;0.65;;;;;;;9.80;100.00;99858.38;5040609;28;20040;-75
2022/12/24 07:48:49;;;;;;;8.95;1.77;;;;;;;9.83;100.00;99866.25;5041921;28;20043;-75
2022/12/24 07:51:14;;;;;;;4.95;0.90;;;;;;;9.84;100.00;99852.16;5039376;28;20044;-75
2022/12/24 07:53:46;;;;;;;4.93;0.98;;;;;;;9.83;100.00;99872.38;5039291;28;20037;-75
2022/12/24 07:56:12;;;;;;;6.32;0.80;;;;;;;9.83;100.00;99871.50;5040267;28;20088;-75
2022/12/24 07:58:37;;;;;;;6.15;0.80;;;;;;;9.83;100.00;99872.38;5040814;28;20426;-75
2022/12/24 08:01:02;;;;;;;5.05;0.60;;;;;;;9.86;100.00;99892.53;5041714;28;20029;-75
2022/12/24 08:03:28;;;;;;;6.70;0.60;;;;;;;9.85;100.00;99888.16;5039647;28;20045;-75
2022/12/24 08:05:53;;;;;;;10.02;1.17;;;;;;;9.81;100.00;99881.19;5032417;28;20045;-75
2022/12/24 08:08:19;;;;;;;3.78;0.85;;;;;;;9.83;100.00;99897.88;5042377;28;20036;-75
2022/12/24 08:10:45;;;;;;;4.63;1.73;;;;;;;9.86;100.00;99911.00;5040103;28;20045;-75
2022/12/24 08:13:11;;;;;;;7.80;1.00;;;;;;;9.88;99.88;99914.50;5044374;28;20048;-75
2022/12/24 08:15:37;;;;;;;3.03;1.13;;;;;;;9.91;100.00;99910.94;5045812;28;20045;-75
2022/12/24 08:18:02;;;;;;;6.03;1.17;;;;;;;9.92;99.88;99902.13;5050330;28;20071;-75
2022/12/24 08:20:28;;;;;;;11.43;2.10;;;;;;;9.94;99.33;99905.63;5046250;28;20102;-75
2022/12/24 08:22:53;;;;;;;7.82;1.50;;;;;;;9.98;99.26;99916.13;5043202;28;20032;-75
2022/12/24 08:25:19;;;;;;;5.72;1.30;;;;;;;10.00;98.47;99919.56;5045119;28;20045;-75
2022/12/24 08:27:45;;;;;;;7.95;0.75;;;;;;;9.98;99.32;99921.38;5044303;28;20041;-75
2022/12/24 08:30:10;;;;;;;6.00;2.13;;;;;;;9.97;98.77;99922.25;5044184;28;20064;-75
2022/12/24 08:32:36;;;;;;;6.03;1.08;;;;;;;9.91;98.97;99926.75;5044276;28;20044;-75
2022/12/24 08:35:01;;;;;;;8.43;1.70;;;;;;;9.93;96.66;99931.13;5049418;28;20033;-75
2022/12/24 08:37:26;;;;;;;6.07;1.17;;;;;;;10.08;96.91;99935.28;5042542;28;20033;-75
2022/12/24 08:39:52;;;;;;;6.80;1.20;;;;;;;10.08;96.71;99933.53;5042958;28;20039;-75
2022/12/24 08:42:17;;;;;;;5.80;0.93;;;;;;;10.04;96.44;99928.34;5044703;28;20040;-75
2022/12/24 08:44:42;;;;;;;6.32;1.27;;;;;;;10.08;96.12;99945.84;5044238;28;20124;-75
2022/12/24 08:47:08;;;;;;;3.10;0.85;;;;;;;10.11;95.86;99943.16;5043673;28;20113;-75
2022/12/24 08:49:33;;;;;;;5.40;0.75;;;;;;;10.07;96.30;99944.97;5042998;28;20072;-75
2022/12/24 08:51:58;;;;;;;7.85;1.20;;;;;;;10.14;96.66;99965.97;5042524;28;20144;-75
2022/12/24 08:54:24;;;;;;;9.30;1.45;;;;;;;10.14;95.63;99960.69;5045518;28;20041;-75
2022/12/24 08:56:50;;;;;;;8.38;0.98;;;;;;;10.16;95.35;99972.09;5042911;28;20052;-75
2022/12/24 08:59:15;;;;;;;3.03;0.70;;;;;;;10.15;95.98;99978.28;5044313;28;20030;-75
2022/12/24 09:01:40;;;;;;;1.80;0.50;;;;;;;10.12;96.22;99976.56;5043445;28;20032;-75
2022/12/24 09:04:06;;;;;;;6.65;0.73;;;;;;;10.17;95.96;99981.78;5044738;28;20488;-75
2022/12/24 09:06:31;;;;;;;3.45;0.95;;;;;;;10.12;96.09;99987.09;5043805;28;20036;-75
2022/12/24 09:08:57;;;;;;;6.20;1.63;;;;;;;10.14;96.78;100000.25;5042248;28;20546;-75
2022/12/24 09:11:23;;;;;;;8.93;1.35;;;;;;;10.15;95.23;100007.28;5044674;28;20127;-75
2022/12/24 09:13:48;;;;;;;7.55;1.75;;;;;;;10.27;95.97;100001.84;5043336;28;20033;-75
2022/12/24 09:16:14;;;;;;;5.47;1.58;;;;;;;10.29;96.22;100002.72;5042757;28;20041;-75
2022/12/24 09:18:40;;;;;;;7.80;1.52;;;;;;;10.32;95.16;100013.22;5043827;28;20481;-75
2022/12/24 09:21:13;;;;;;;9.02;2.25;;;;;;;10.33;95.15;100014.13;5041945;28;20037;-75
2022/12/24 09:23:40;;;;;;;6.47;1.23;;;;;;;10.35;93.92;100012.31;5038448;28;20076;-76
2022/12/24 09:26:07;;;;;;;7.88;2.28;;;;;;;10.31;94.14;100022.03;5043320;28;20075;-76
2022/12/24 09:28:32;;;;;;;3.05;0.70;;;;;;;10.39;94.77;100020.19;5042817;28;20094;-76
2022/12/24 09:31:00;;;;;;;7.30;1.33;;;;;;;10.39;93.64;100017.53;5041352;28;20040;-75
2022/12/24 09:33:26;;;;;;;5.00;1.42;;;;;;;10.48;94.10;100025.34;5038003;28;20171;-76
2022/12/24 09:35:52;;;;;;;7.68;1.58;;;;;;;10.40;93.65;100037.78;5075569;23;20131;-77
2022/12/24 09:38:19;;;;;;;8.25;2.58;;;;;;;10.47;93.07;100041.19;5081098;28;20071;-77
2022/12/24 09:40:44;;;;;;;7.38;1.10;;;;;;;10.43;92.89;100043.00;5073143;28;20452;-77
2022/12/24 09:43:16;;;;;;;4.15;0.95;;;;;;;10.41;92.36;100039.50;5073347;28;20119;-77
2022/12/24 09:45:54;;;;;;;5.88;1.50;;;;;;;10.48;91.96;100051.72;5061819;28;20033;-77
2022/12/24 09:48:24;;;;;;;4.90;0.98;;;;;;;10.46;92.15;100052.63;5062307;28;20041;-77
2022/12/24 09:50:53;;;;;;;4.88;0.80;;;;;;;10.49;91.09;100060.50;5058007;28;20386;-77
2022/12/24 09:53:26;;;;;;;7.63;1.20;;;;;;;10.59;91.33;100075.31;5063736;28;20048;-77
2022/12/24 09:55:56;;;;;;;10.48;2.35;;;;;;;10.61;90.60;100073.53;5064106;28;20032;-77
2022/12/24 09:58:38;;;;;;;5.80;1.33;;;;;;;10.63;91.09;100065.59;5059313;28;20123;-77
2022/12/24 10:01:04;;;;;;;5.10;1.00;;;;;;;10.71;90.39;100069.00;5061887;28;20041;-77
2022/12/24 10:03:29;;;;;;;4.75;1.35;;;;;;;10.69;89.70;100081.34;5064731;28;20039;-77
2022/12/24 10:06:05;;;;;;;10.38;2.50;;;;;;;10.67;89.40;100067.31;5061679;28;20036;-77
2022/12/24 10:08:50;;;;;;;8.52;1.40;;;;;;;10.88;89.37;100067.00;5062598;28;20468;-77
2022/12/24 10:11:26;;;;;;;9.07;1.17;;;;;;;10.91;88.55;100082.78;5061551;28;20044;-77
2022/12/24 10:14:00;;;;;;;5.53;2.08;;;;;;;11.03;87.13;100067.63;5062301;28;20495;-77
2022/12/24 10:16:39;;;;;;;8.23;1.63;;;;;;;11.19;87.85;100066.53;5063486;28;20040;-77
2022/12/24 10:19:16;;;;;;;7.70;1.13;;;;;;;11.28;86.95;100054.94;5059500;28;20123;-77
2022/12/24 10:22:16;;;;;;;5.53;1.17;;;;;;;11.27;86.00;100075.19;5063247;28;20024;-77
2022/12/24 10:24:53;;;;;;;9.38;1.98;;;;;;;11.23;86.30;100077.91;5062751;28;20112;-77
2022/12/24 10:27:26;;;;;;;6.97;2.05;;;;;;;11.21;85.35;100058.56;5063832;28;20041;-77
2022/12/24 10:30:00;;;;;;;8.60;1.83;;;;;;;11.18;86.78;100064.75;5054932;28;20056;-77
2022/12/24 10:32:30;;;;;;;11.00;2.88;;;;;;;11.12;86.06;100086.00;5063278;28;20503;-77
2022/12/24 10:35:15;;;;;;;10.95;2.10;;;;;;;11.18;86.33;100083.25;5062128;28;20408;-77
2022/12/24 10:37:46;;;;;;;19.13;3.42;;;;;;;11.16;86.07;100087.69;5063241;28;20123;-77
2022/12/24 10:40:27;;;;;;;7.07;1.23;;;;;;;11.02;85.46;100079.09;5060979;28;20033;-77
2022/12/24 10:42:52;;;;;;;12.77;2.00;;;;;;;10.97;86.43;100095.88;5063086;28;20033;-77
2022/12/24 10:45:21;;;;;;;8.57;1.17;;;;;;;11.06;85.35;100086.09;5065474;28;20075;-77
2022/12/24 10:47:53;;;;;;;9.90;1.42;;;;;;;11.16;85.02;100092.97;5056232;28;20578;-77
2022/12/24 10:50:29;;;;;;;6.37;1.87;;;;;;;11.26;85.02;100110.41;5064097;28;20037;-77
2022/12/24 10:53:04;;;;;;;12.70;1.65;;;;;;;11.37;85.81;100092.66;5059430;28;20036;-78
2022/12/24 10:55:29;;;;;;;11.10;1.85;;;;;;;11.42;83.47;100100.47;5062919;28;20123;-77
2022/12/24 10:58:11;;;;;;;11.98;1.88;;;;;;;11.43;84.45;100102.22;5064284;28;20132;-77
2022/12/24 11:00:37;;;;;;;12.73;2.67;;;;;;;11.49;82.31;100109.19;5060919;28;20033;-77
2022/12/24 11:03:11;;;;;;;8.57;1.90;;;;;;;11.51;81.14;100102.09;5056782;28;20048;-77
2022/12/24 11:05:38;;;;;;;12.30;1.73;;;;;;;11.55;81.53;100122.28;5057406;28;20637;-77
2022/12/24 11:08:13;;;;;;;7.32;1.13;;;;;;;11.59;79.81;100138.06;5063813;28;20039;-77
2022/12/24 11:10:44;;;;;;;9.32;1.58;;;;;;;11.54;81.93;100120.56;5064161;28;20086;-78
2022/12/24 11:13:23;;;;;;;7.18;1.42;;;;;;;11.44;82.53;100137.44;5060142;28;20542;-77
2022/12/24 11:15:59;;;;;;;6.90;1.30;;;;;;;11.30;82.27;100143.81;5061483;28;20056;-78
2022/12/24 11:18:25;;;;;;;7.78;1.65;;;;;;;11.25;83.18;100135.09;5058439;28;20051;-77
2022/12/24 11:20:51;;;;;;;6.57;1.40;;;;;;;11.23;84.10;100144.81;5060268;28;20107;-78
2022/12/24 11:23:18;;;;;;;6.63;1.25;;;;;;;11.15;85.06;100150.19;5062232;28;20402;-78
2022/12/24 11:25:49;;;;;;;9.63;1.70;;;;;;;11.19;84.79;100149.28;5057085;28;20041;-78
2022/12/24 11:28:21;;;;;;;6.70;0.88;;;;;;;11.17;85.05;100145.78;5059128;28;20051;-78
2022/12/24 11:31:17;;;;;;;6.15;1.30;;;;;;;11.16;86.13;100157.25;5044696;28;20074;-78
2022/12/24 11:33:51;;;;;;;7.30;1.40;;;;;;;11.21;86.32;100158.94;5061096;28;20407;-77
2022/12/24 11:36:21;;;;;;;9.38;1.88;;;;;;;11.19;86.73;100166.91;5056547;28;20037;-78
2022/12/24 11:38:55;;;;;;;11.27;1.65;;;;;;;11.30;86.33;100183.47;5064038;28;20044;-77
2022/12/24 11:41:21;;;;;;;6.40;1.08;;;;;;;11.38;86.05;100173.63;5059067;28;20040;-77
2022/12/24 11:43:49;;;;;;;11.90;1.50;;;;;;;11.55;86.34;100167.22;5061473;28;20040;-78
2022/12/24 11:46:19;;;;;;;7.20;1.25;;;;;;;11.62;85.93;100163.59;5060841;28;20384;-77